Time;durP1;ratioP1;P1;durP2;ratioP2;P2;SDS_P1;SDS_P2;PMS_P1;PMS_P2;Temp;Humidity;BMP_temperature;BMP_pressure;BME280_temperature;BME280_humidity;BME280_pressure;Samples;Min_cycle;Max_cycle;Signal;HPM_P1;HPM_P2
2021/03/11 00:00:13;;;;;;;57.70;28.80;;;;;;;-3.65;64.66;100695.73;1763001;79;21180;-60
2021/03/11 00:02:41;;;;;;;;;;;;;;;-3.72;64.70;100698.53;1761306;81;21077;-60
2021/03/11 00:05:11;;;;;;;108.87;62.37;;;;;;;-3.77;64.87;100699.89;1727028;83;21375;-60
2021/03/11 00:07:40;;;;;;;84.53;46.80;;;;;;;-3.76;65.02;100694.98;1720697;83;21181;-66
2021/03/11 00:10:10;;;;;;;76.80;42.37;;;;;;;-3.76;64.94;100706.81;1722419;83;21150;-60
2021/03/11 00:12:41;;;;;;;78.63;44.93;;;;;;;-3.80;64.96;100706.73;1725960;82;21032;-62
2021/03/11 00:15:18;;;;;;;78.27;44.33;;;;;;;-3.83;65.08;100701.25;1733717;82;21122;-61
2021/03/11 00:17:46;;;;;;;72.77;46.03;;;;;;;-3.80;65.09;100704.11;1738722;82;23620;-59
2021/03/11 00:20:21;;;;;;;83.53;51.23;;;;;;;-3.80;65.14;100701.48;1735336;82;21218;-61
2021/03/11 00:22:48;;;;;;;95.07;54.83;;;;;;;-3.78;65.19;100700.84;1735308;82;21247;-59
2021/03/11 00:25:19;;;;;;;83.97;52.67;;;;;;;-3.75;65.23;100705.37;1737659;82;21169;-61
2021/03/11 00:27:47;;;;;;;96.80;57.40;;;;;;;-3.72;65.11;100698.53;1734202;82;21185;-61
2021/03/11 00:30:16;;;;;;;106.13;56.20;;;;;;;-3.72;64.97;100697.70;1731546;82;21418;-62
2021/03/11 00:32:43;;;;;;;89.07;49.13;;;;;;;-3.74;65.01;100697.82;1747442;82;21161;-63
2021/03/11 00:35:13;;;;;;;82.33;43.47;;;;;;;-3.76;64.97;100700.25;1769622;80;21153;-62
2021/03/11 00:37:41;;;;;;;103.00;55.00;;;;;;;-3.83;65.00;100698.62;1743259;82;21133;-62
2021/03/11 00:40:12;;;;;;;102.97;48.60;;;;;;;-3.90;65.13;100693.56;1745595;82;21156;-62
2021/03/11 00:42:39;;;;;;;123.13;60.70;;;;;;;-3.96;65.24;100696.71;1735547;82;22133;-61
2021/03/11 00:45:09;;;;;;;103.93;55.20;;;;;;;-3.99;65.33;100696.50;1736248;82;21026;-64
2021/03/11 00:47:39;;;;;;;123.60;56.07;;;;;;;-3.92;65.44;100695.48;1717808;83;21220;-62
2021/03/11 00:50:11;;;;;;;133.70;65.97;;;;;;;-3.86;65.30;100699.38;1717580;83;21229;-60
2021/03/11 00:52:38;;;;;;;117.17;57.87;;;;;;;-3.86;65.26;100688.87;1718020;83;21852;-61
2021/03/11 00:55:08;;;;;;;93.80;49.53;;;;;;;-3.88;65.32;100690.81;1739575;81;21370;-62
2021/03/11 00:57:36;;;;;;;118.30;64.70;;;;;;;-3.93;65.39;100693.00;1723404;83;21177;-61
2021/03/11 01:00:06;;;;;;;126.60;62.23;;;;;;;-4.00;65.55;100688.27;1736638;81;21760;-64
2021/03/11 01:02:36;;;;;;;124.93;61.63;;;;;;;-4.06;65.64;100683.53;1763885;81;21236;-62
2021/03/11 01:05:05;;;;;;;93.20;49.63;;;;;;;-4.09;65.69;100678.55;1757550;81;21626;-61
2021/03/11 01:07:34;;;;;;;80.20;42.80;;;;;;;-4.09;65.66;100679.03;1752479;81;21093;-61
2021/03/11 01:10:03;;;;;;;94.50;40.77;;;;;;;-4.10;65.69;100672.95;1728100;83;21168;-61
2021/03/11 01:12:30;;;;;;;83.60;41.83;;;;;;;-4.12;65.61;100672.70;1758628;80;21028;-63
2021/03/11 01:14:58;;;;;;;113.43;49.53;;;;;;;-4.15;65.58;100671.67;1767245;80;21209;-61
2021/03/11 01:17:25;;;;;;;96.60;50.23;;;;;;;-4.18;65.72;100672.78;1726147;82;21603;-61
2021/03/11 01:19:53;;;;;;;96.17;49.03;;;;;;;-4.14;65.83;100666.30;1727666;83;21431;-62
2021/03/11 01:22:21;;;;;;;86.63;46.13;;;;;;;-4.10;65.92;100669.48;1725994;83;21630;-60
2021/03/11 01:24:49;;;;;;;89.77;47.20;;;;;;;-4.04;65.77;100667.17;1724437;83;21073;-60
2021/03/11 01:27:17;;;;;;;79.80;41.67;;;;;;;-4.00;65.59;100671.67;1758535;81;21586;-61
2021/03/11 01:29:45;;;;;;;85.07;47.47;;;;;;;-4.05;65.50;100664.66;1746939;81;21203;-61
2021/03/11 01:32:14;;;;;;;81.47;43.27;;;;;;;-4.07;65.66;100667.41;1710056;82;21208;-60
2021/03/11 01:34:42;;;;;;;77.00;46.07;;;;;;;-3.97;65.73;100668.29;1712203;82;21214;-60
2021/03/11 01:37:09;;;;;;;78.73;40.13;;;;;;;-3.78;65.65;100664.89;1713878;82;21627;-60
2021/03/11 01:39:37;;;;;;;92.17;47.27;;;;;;;-3.63;65.22;100660.92;1727785;83;21181;-60
2021/03/11 01:42:05;;;;;;;89.73;44.53;;;;;;;-3.58;64.99;100665.77;1753394;81;21165;-60
2021/03/11 01:44:33;;;;;;;81.57;47.30;;;;;;;-3.60;64.78;100661.15;1735861;81;22269;-61
2021/03/11 01:47:00;;;;;;;69.73;39.33;;;;;;;-3.53;64.73;100672.30;1745552;81;21634;-61
2021/03/11 01:49:28;;;;;;;69.63;35.83;;;;;;;-3.44;64.61;100671.13;1726565;83;21630;-60
2021/03/11 01:51:55;;;;;;;65.07;38.60;;;;;;;-3.45;64.24;100670.80;1738125;81;21599;-61
2021/03/11 01:54:25;;;;;;;65.60;35.57;;;;;;;-3.51;64.47;100669.54;1755934;81;21207;-61
2021/03/11 01:56:52;;;;;;;61.23;32.53;;;;;;;-3.44;64.33;100671.95;1758325;81;21259;-61
2021/03/11 01:59:20;;;;;;;52.90;28.03;;;;;;;-3.44;64.08;100673.27;1758270;81;21097;-62
2021/03/11 02:01:48;;;;;;;42.50;24.93;;;;;;;-3.64;64.12;100673.70;1757266;81;21182;-62
2021/03/11 02:04:17;;;;;;;47.40;27.50;;;;;;;-3.83;64.59;100667.08;1754870;81;21150;-61
2021/03/11 02:06:44;;;;;;;49.20;30.60;;;;;;;-4.03;65.00;100674.58;1752680;81;21031;-61
2021/03/11 02:09:12;;;;;;;56.10;28.73;;;;;;;-4.11;65.57;100675.22;1747389;81;21324;-60
2021/03/11 02:11:43;;;;;;;51.17;24.70;;;;;;;-4.17;66.05;100669.67;1750085;81;21188;-59
2021/03/11 02:14:20;;;;;;;42.30;22.87;;;;;;;-4.22;66.15;100677.92;1758529;81;21149;-60
2021/03/11 02:16:55;;;;;;;40.63;21.57;;;;;;;-4.29;66.26;100678.59;1758884;80;21185;-60
2021/03/11 02:20:04;;;;;;;43.43;25.47;;;;;;;-4.28;66.39;100685.51;1758301;81;21129;-61
2021/03/11 02:22:49;;;;;;;77.40;47.87;;;;;;;-4.28;66.37;100695.53;1699035;84;21212;-60
2021/03/11 02:25:41;;;;;;;68.77;45.70;;;;;;;-4.28;66.34;100690.28;1720467;83;21160;-61
2021/03/11 02:28:55;;;;;;;75.27;48.43;;;;;;;-4.15;66.23;100692.69;1757002;81;21213;-61
2021/03/11 02:31:23;;;;;;;85.90;47.27;;;;;;;-4.16;66.15;100691.02;1751127;81;21130;-60
2021/03/11 02:33:52;;;;;;;73.13;38.93;;;;;;;-4.18;66.08;100691.64;1747723;81;21173;-60
2021/03/11 02:36:20;;;;;;;89.00;51.00;;;;;;;-4.22;66.04;100684.99;1690523;81;21404;-60
2021/03/11 02:38:49;;;;;;;82.20;43.70;;;;;;;-4.29;66.10;100689.09;1754487;81;21566;-61
2021/03/11 02:41:18;;;;;;;78.93;42.83;;;;;;;-4.37;66.23;100688.91;1758911;81;21105;-61
2021/03/11 02:43:48;;;;;;;84.17;41.97;;;;;;;-4.44;66.44;100688.11;1750730;81;21176;-60
2021/03/11 02:46:16;;;;;;;82.80;45.60;;;;;;;-4.46;66.60;100687.91;1739207;81;21165;-60
2021/03/11 02:48:45;;;;;;;74.10;38.30;;;;;;;-4.48;66.70;100684.56;1731778;81;21434;-61
2021/03/11 02:51:13;;;;;;;63.97;31.93;;;;;;;-4.44;66.78;100685.48;1752059;81;21173;-60
2021/03/11 02:53:41;;;;;;;63.70;35.57;;;;;;;-4.45;66.79;100689.06;1753094;81;20974;-61
2021/03/11 02:56:09;;;;;;;74.17;41.70;;;;;;;-4.49;66.89;100689.45;1752626;81;21235;-60
2021/03/11 02:58:40;;;;;;;72.13;40.13;;;;;;;-4.53;67.04;100686.74;1752305;81;21631;-60
2021/03/11 03:01:08;;;;;;;74.87;40.20;;;;;;;-4.52;67.21;100691.03;1751870;81;21390;-61
2021/03/11 03:03:35;;;;;;;77.13;40.90;;;;;;;-4.52;67.25;100687.10;1747115;81;21209;-60
2021/03/11 03:06:04;;;;;;;70.10;44.50;;;;;;;-4.48;67.22;100684.56;1740608;81;21189;-59
2021/03/11 03:08:31;;;;;;;85.53;47.17;;;;;;;-4.43;67.15;100687.16;1723864;82;21153;-60
2021/03/11 03:11:00;;;;;;;87.20;46.30;;;;;;;-4.33;66.98;100678.02;1713410;83;21146;-61
2021/03/11 03:13:27;;;;;;;86.50;46.53;;;;;;;-4.21;66.74;100675.65;1714962;82;21200;-59
2021/03/11 03:15:58;;;;;;;91.93;50.47;;;;;;;-4.18;66.49;100679.34;1738040;82;21210;-60
2021/03/11 03:18:27;;;;;;;87.07;45.47;;;;;;;-4.20;66.37;100679.95;1740070;82;21125;-60
2021/03/11 03:20:55;;;;;;;76.63;41.60;;;;;;;-4.20;66.34;100681.26;1721440;82;21186;-59
2021/03/11 03:23:22;;;;;;;82.37;38.03;;;;;;;-4.24;66.24;100676.40;1740099;82;21138;-62
2021/03/11 03:25:51;;;;;;;67.13;37.60;;;;;;;-4.32;66.25;100680.17;1692459;83;21210;-60
2021/03/11 03:28:19;;;;;;;66.83;35.73;;;;;;;-4.43;66.38;100686.32;1696968;84;21198;-62
2021/03/11 03:30:46;;;;;;;65.67;34.07;;;;;;;-4.52;66.60;100684.00;1667276;86;21133;-60
2021/03/11 03:33:16;;;;;;;58.27;32.93;;;;;;;-4.57;66.71;100682.72;1682699;84;21646;-59
2021/03/11 03:35:43;;;;;;;59.40;31.50;;;;;;;-4.64;66.85;100685.48;1726452;83;21145;-61
2021/03/11 03:38:12;;;;;;;54.50;29.73;;;;;;;-4.64;67.14;100688.11;1696512;84;23487;-61
2021/03/11 03:40:40;;;;;;;44.57;26.37;;;;;;;-4.61;67.20;100683.46;1692186;84;21158;-60
2021/03/11 03:43:22;;;;;;;52.63;30.73;;;;;;;-4.59;67.11;100692.02;1744772;81;21134;-60
2021/03/11 03:45:57;;;;;;;53.93;31.10;;;;;;;-4.62;67.22;100694.91;1736750;82;21130;-60
2021/03/11 03:48:31;;;;;;;51.20;25.80;;;;;;;-4.60;67.18;100687.72;1743228;82;21181;-62
2021/03/11 03:50:58;;;;;;;52.97;29.27;;;;;;;-4.61;67.16;100693.12;1743259;82;21194;-60
2021/03/11 03:53:30;;;;;;;46.63;30.17;;;;;;;-4.69;67.22;100685.88;1743095;82;21165;-61
2021/03/11 03:55:59;;;;;;;50.77;26.77;;;;;;;-4.65;67.35;100694.34;1692968;84;21598;-61
2021/03/11 03:58:27;;;;;;;46.80;27.40;;;;;;;-4.55;67.34;100688.17;1735868;82;21174;-62
2021/03/11 04:00:55;;;;;;;55.03;25.87;;;;;;;-4.50;67.23;100688.63;1724166;82;21134;-62
2021/03/11 04:03:23;;;;;;;48.77;27.67;;;;;;;-4.42;67.12;100690.62;1737448;81;32360;-60
2021/03/11 04:05:55;;;;;;;48.17;27.33;;;;;;;-4.41;67.04;100689.16;1723809;81;21168;-61
2021/03/11 04:08:24;;;;;;;45.07;25.20;;;;;;;-4.41;66.98;100688.31;1714798;81;21219;-61
2021/03/11 04:10:52;;;;;;;53.27;28.90;;;;;;;-4.49;66.80;100681.58;1721102;82;21150;-61
2021/03/11 04:13:20;;;;;;;66.17;34.33;;;;;;;-4.62;66.83;100687.52;1752740;81;21518;-61
2021/03/11 04:15:48;;;;;;;52.30;32.33;;;;;;;-4.69;67.06;100693.74;1744672;82;21383;-61
2021/03/11 04:18:16;;;;;;;67.70;33.67;;;;;;;-4.69;67.19;100691.12;1756848;81;21574;-60
2021/03/11 04:20:45;;;;;;;64.20;34.17;;;;;;;-4.62;67.13;100694.91;1756782;81;21172;-61
2021/03/11 04:23:14;;;;;;;71.67;37.10;;;;;;;-4.60;67.13;100692.14;1755825;81;21177;-61
2021/03/11 04:25:42;;;;;;;64.80;37.50;;;;;;;-4.57;67.04;100699.77;1754468;81;21114;-61
2021/03/11 04:28:10;;;;;;;72.47;39.83;;;;;;;-4.60;66.86;100702.63;1728772;83;21411;-61
2021/03/11 04:30:38;;;;;;;66.03;41.27;;;;;;;-4.68;66.94;100707.70;1734693;81;21119;-63
2021/03/11 04:33:06;;;;;;;73.53;41.37;;;;;;;-4.76;66.94;100704.41;1758835;81;21168;-61
2021/03/11 04:35:33;;;;;;;73.60;44.83;;;;;;;-4.78;67.11;100708.94;1729768;82;21209;-62
2021/03/11 04:38:04;;;;;;;84.43;47.57;;;;;;;-4.77;67.03;100716.34;1704768;84;21594;-62
2021/03/11 04:40:32;;;;;;;107.40;57.93;;;;;;;-4.82;67.04;100712.78;1704684;84;21369;-63
2021/03/11 04:43:01;;;;;;;114.77;62.00;;;;;;;-4.90;67.10;100716.05;1701267;83;21217;-65
2021/03/11 04:45:29;;;;;;;103.17;57.53;;;;;;;-4.90;67.32;100719.98;1728935;81;21121;-62
2021/03/11 04:47:58;;;;;;;116.43;66.70;;;;;;;-4.85;67.29;100708.63;1758950;81;21227;-61
2021/03/11 04:50:25;;;;;;;127.07;61.67;;;;;;;-4.85;67.27;100711.73;1757873;80;21662;-63
2021/03/11 04:52:53;;;;;;;127.50;65.10;;;;;;;-4.88;67.25;100713.28;1759382;80;21493;-61
2021/03/11 04:55:21;;;;;;;134.47;70.10;;;;;;;-4.97;67.39;100714.87;1756935;81;21630;-62
2021/03/11 04:57:49;;;;;;;114.77;62.50;;;;;;;-4.91;67.69;100717.00;1756739;81;21081;-62
2021/03/11 05:00:17;;;;;;;94.10;50.73;;;;;;;-4.82;67.82;100711.47;1757187;81;21146;-64
2021/03/11 05:02:46;;;;;;;89.13;45.33;;;;;;;-4.76;68.01;100714.91;1757041;81;21197;-61
2021/03/11 05:05:14;;;;;;;105.63;53.93;;;;;;;-4.74;68.12;100715.59;1757195;81;21385;-62
2021/03/11 05:07:42;;;;;;;76.07;39.07;;;;;;;-4.81;68.39;100717.55;1729259;82;21121;-62
2021/03/11 05:10:10;;;;;;;89.40;45.33;;;;;;;-4.76;68.69;100720.62;1752895;81;21022;-61
2021/03/11 05:12:38;;;;;;;113.63;57.23;;;;;;;-4.72;68.81;100725.98;1748769;81;21165;-61
2021/03/11 05:15:07;;;;;;;112.47;52.70;;;;;;;-4.76;68.89;100723.25;1748467;81;21149;-61
2021/03/11 05:17:34;;;;;;;110.10;54.13;;;;;;;-4.65;69.04;100731.89;1748446;82;21374;-61
2021/03/11 05:20:03;;;;;;;107.73;47.30;;;;;;;-4.60;69.06;100730.19;1748250;82;21133;-61
2021/03/11 05:22:30;;;;;;;96.03;48.53;;;;;;;-4.41;69.11;100731.16;1717620;83;21026;-61
2021/03/11 05:24:59;;;;;;;92.07;46.40;;;;;;;-4.36;68.68;100729.46;1733253;82;21126;-61
2021/03/11 05:27:27;;;;;;;73.80;36.83;;;;;;;-4.38;68.76;100731.41;1733201;82;21190;-60
2021/03/11 05:29:55;;;;;;;97.93;48.80;;;;;;;-4.41;68.78;100739.03;1733322;82;21371;-61
2021/03/11 05:32:22;;;;;;;90.30;43.97;;;;;;;-4.42;68.81;100735.25;1738325;82;21146;-61
2021/03/11 05:34:49;;;;;;;91.33;46.63;;;;;;;-4.42;68.89;100736.09;1734096;82;21110;-60
2021/03/11 05:37:18;;;;;;;93.10;47.30;;;;;;;-4.43;68.89;100738.35;1733377;82;21123;-60
2021/03/11 05:39:45;;;;;;;79.77;46.70;;;;;;;-4.42;68.95;100735.25;1733352;82;21182;-61
2021/03/11 05:42:13;;;;;;;85.67;39.50;;;;;;;-4.29;69.05;100742.44;1737173;82;21373;-62
2021/03/11 05:44:40;;;;;;;91.77;46.10;;;;;;;-4.17;68.69;100740.08;1739326;82;21004;-60
2021/03/11 05:47:07;;;;;;;109.47;45.83;;;;;;;-4.17;68.48;100735.34;1735688;82;21163;-60
2021/03/11 05:49:35;;;;;;;94.57;51.13;;;;;;;-4.18;68.51;100736.30;1733374;82;21588;-59
2021/03/11 05:52:04;;;;;;;108.87;52.10;;;;;;;-4.15;68.53;100743.42;1736631;82;21745;-61
2021/03/11 05:54:31;;;;;;;114.90;58.70;;;;;;;-4.08;68.54;100743.27;1739579;82;21660;-59
2021/03/11 05:57:00;;;;;;;102.67;49.77;;;;;;;-4.03;68.49;100741.05;1716585;82;21574;-62
2021/03/11 05:59:27;;;;;;;92.23;49.07;;;;;;;-3.96;68.31;100740.06;1684040;83;21206;-61
2021/03/11 06:01:55;;;;;;;71.17;37.40;;;;;;;-3.85;68.31;100742.61;1737612;82;21181;-62
2021/03/11 06:04:23;;;;;;;87.77;38.53;;;;;;;-3.74;67.65;100749.07;1747200;81;21202;-62
2021/03/11 06:06:52;;;;;;;59.43;29.30;;;;;;;-3.66;66.73;100749.73;1747383;82;21177;-62
2021/03/11 06:09:19;;;;;;;68.17;34.23;;;;;;;-3.60;65.58;100751.34;1756074;81;21011;-61
2021/03/11 06:11:47;;;;;;;57.50;30.20;;;;;;;-3.56;65.25;100750.13;1758323;81;21590;-60
2021/03/11 06:14:15;;;;;;;41.03;23.97;;;;;;;-3.50;64.47;100751.87;1729011;83;21105;-60
2021/03/11 06:17:02;;;;;;;50.90;26.80;;;;;;;-3.40;63.59;100753.55;1758725;81;21638;-60
2021/03/11 06:19:30;;;;;;;34.07;20.03;;;;;;;-3.34;63.12;100754.34;1758400;81;21516;-62
2021/03/11 06:21:58;;;;;;;27.03;16.13;;;;;;;-3.17;62.54;100758.13;1731889;81;21166;-61
2021/03/11 06:24:25;;;;;;;29.63;16.20;;;;;;;-3.07;62.01;100758.14;1756341;80;21106;-62
2021/03/11 06:26:54;;;;;;;24.40;13.73;;;;;;;-2.95;61.31;100761.81;1758178;81;21129;-60
2021/03/11 06:29:41;;;;;;;23.20;12.87;;;;;;;-2.86;60.44;100756.21;1758703;81;21158;-61
2021/03/11 06:32:09;;;;;;;15.90;11.17;;;;;;;-2.83;59.68;100759.91;1713942;82;21372;-60
2021/03/11 06:34:45;;;;;;;14.57;10.40;;;;;;;-2.87;58.93;100761.95;1726617;82;21623;-61
2021/03/11 06:37:14;;;;;;;18.57;10.73;;;;;;;-2.92;58.94;100762.85;1749862;81;21177;-60
2021/03/11 06:39:43;;;;;;;19.63;13.83;;;;;;;-2.92;59.06;100760.22;1752044;81;21109;-61
2021/03/11 06:42:10;;;;;;;22.13;12.73;;;;;;;-2.89;59.17;100763.08;1751996;81;21051;-60
2021/03/11 06:44:40;;;;;;;19.57;11.07;;;;;;;-2.84;58.96;100760.87;1753937;81;21386;-60
2021/03/11 06:47:11;;;;;;;23.57;12.63;;;;;;;-2.82;58.62;100765.02;1757870;81;21196;-61
2021/03/11 06:50:01;;;;;;;22.77;13.43;;;;;;;-2.78;58.39;100769.03;1758792;81;21172;-61
2021/03/11 06:52:28;;;;;;;25.23;13.33;;;;;;;-2.74;58.40;100765.66;1755639;81;21633;-61
2021/03/11 06:55:05;;;;;;;22.30;13.53;;;;;;;-2.67;58.59;100770.22;1752536;81;21169;-61
2021/03/11 06:57:34;;;;;;;20.93;12.83;;;;;;;-2.56;58.57;100773.20;1752680;81;21587;-59
2021/03/11 07:00:21;;;;;;;22.83;12.37;;;;;;;-2.41;58.30;100773.61;1754919;81;21065;-60
2021/03/11 07:02:58;;;;;;;19.93;11.40;;;;;;;-2.36;58.02;100774.86;1756718;81;21551;-60
2021/03/11 07:05:28;;;;;;;28.27;15.13;;;;;;;-2.36;57.92;100776.18;1746233;81;21193;-61
2021/03/11 07:08:11;;;;;;;24.10;14.30;;;;;;;-2.34;57.94;100775.53;1712972;83;21205;-60
2021/03/11 07:10:39;;;;;;;25.87;15.17;;;;;;;-2.26;58.11;100780.13;1719208;83;22058;-60
2021/03/11 07:13:06;;;;;;;31.23;14.93;;;;;;;-2.11;58.06;100776.05;1714961;83;21197;-60
2021/03/11 07:15:36;;;;;;;25.40;12.53;;;;;;;-2.01;57.72;100778.66;1738013;82;21185;-61
2021/03/11 07:18:12;;;;;;;19.90;12.63;;;;;;;-1.92;57.35;100783.11;1726911;82;21177;-60
2021/03/11 07:20:39;;;;;;;16.60;10.30;;;;;;;-1.79;57.09;100779.18;1714050;82;21632;-60
2021/03/11 07:23:12;;;;;;;15.43;10.90;;;;;;;-1.72;56.67;100775.95;1736195;82;21222;-60
2021/03/11 07:25:46;;;;;;;13.90;8.50;;;;;;;-1.72;56.45;100778.58;1714385;82;21110;-60
2021/03/11 07:28:25;;;;;;;14.20;10.30;;;;;;;-1.64;56.30;100778.72;1737444;81;21198;-62
2021/03/11 07:30:59;;;;;;;12.20;8.33;;;;;;;-1.58;56.24;100773.67;1715027;83;21623;-61
2021/03/11 07:33:29;;;;;;;12.80;8.50;;;;;;;-1.52;55.92;100773.58;1690434;84;21129;-61
2021/03/11 07:36:00;;;;;;;12.67;9.57;;;;;;;-1.47;55.64;100772.66;1726930;80;21369;-60
2021/03/11 07:38:30;;;;;;;13.07;8.30;;;;;;;-1.43;55.56;100776.66;1745851;82;21054;-61
2021/03/11 07:41:00;;;;;;;14.83;8.80;;;;;;;-1.37;55.29;100776.09;1736501;82;21197;-60
2021/03/11 07:43:29;;;;;;;8.50;6.10;;;;;;;-1.27;54.79;100781.31;1715110;83;21200;-59
2021/03/11 07:46:03;;;;;;;11.53;6.73;;;;;;;-1.21;54.02;100776.78;1703010;83;21185;-61
2021/03/11 07:48:31;;;;;;;11.40;9.07;;;;;;;-1.16;53.66;100779.80;1734529;82;22387;-62
2021/03/11 07:50:59;;;;;;;15.50;7.93;;;;;;;-1.09;53.78;100782.18;1735612;82;21248;-60
2021/03/11 07:53:26;;;;;;;14.53;7.70;;;;;;;-1.06;53.46;100782.73;1740300;82;21138;-61
2021/03/11 07:55:56;;;;;;;11.30;8.27;;;;;;;-1.00;53.73;100786.08;1739008;82;21222;-60
2021/03/11 07:58:25;;;;;;;12.37;8.80;;;;;;;-0.92;53.17;100780.08;1733311;82;21214;-60
2021/03/11 08:00:52;;;;;;;14.40;9.07;;;;;;;-0.88;53.00;100780.11;1737809;82;21345;-60
2021/03/11 08:03:24;;;;;;;11.80;8.57;;;;;;;-0.86;52.38;100780.78;1744144;82;21164;-60
2021/03/11 08:05:52;;;;;;;14.33;9.23;;;;;;;-0.76;52.53;100782.03;1742233;81;21177;-62
2021/03/11 08:11:04;;;;;;;11.03;6.67;;;;;;;-0.70;50.44;100774.34;1846069;76;26541;-62
2021/03/11 08:13:38;;;;;;;9.57;7.77;;;;;;;-0.75;50.72;100769.17;1817142;79;20960;-60
2021/03/11 08:16:17;;;;;;;11.97;7.77;;;;;;;-0.75;50.82;100776.61;1817114;79;21478;-61
2021/03/11 08:18:45;;;;;;;18.03;7.47;;;;;;;-0.74;50.84;100772.16;1782882;79;21018;-60
2021/03/11 08:21:27;;;;;;;11.07;7.70;;;;;;;-0.75;50.50;100762.56;1785373;80;21063;-60
2021/03/11 08:23:56;;;;;;;13.17;9.93;;;;;;;-0.73;50.51;100766.73;1784086;80;21046;-60
2021/03/11 08:26:42;;;;;;;17.77;7.93;;;;;;;-0.71;50.13;100770.04;1785075;80;21587;-60
2021/03/11 08:29:26;;;;;;;14.10;8.73;;;;;;;-0.68;49.67;100776.36;1762524;80;22199;-60
2021/03/11 08:31:53;;;;;;;13.43;8.03;;;;;;;-0.68;50.18;100759.67;1762921;79;20991;-60
2021/03/11 08:34:36;;;;;;;18.03;8.80;;;;;;;-0.71;50.93;100761.28;1753958;80;21016;-60
2021/03/11 08:37:21;;;;;;;12.23;8.93;;;;;;;-0.66;50.96;100760.34;1753754;81;21046;-60
2021/03/11 08:39:49;;;;;;;21.13;9.67;;;;;;;-0.56;50.77;100759.77;1757465;80;21149;-62
2021/03/11 08:42:50;;;;;;;11.00;8.00;;;;;;;-0.50;50.08;100752.08;1784356;80;21416;-61
2021/03/11 08:45:40;;;;;;;11.80;7.30;;;;;;;-0.43;49.12;100752.28;1784909;80;21177;-60
2021/03/11 08:48:22;;;;;;;10.43;6.07;;;;;;;-0.36;48.33;100752.02;1783116;80;21009;-60
2021/03/11 08:50:55;;;;;;;8.93;7.30;;;;;;;-0.31;48.63;100748.91;1776914;80;21139;-61
2021/03/11 08:53:44;;;;;;;7.03;6.20;;;;;;;-0.29;48.22;100756.21;1754092;81;21104;-60
2021/03/11 08:56:23;;;;;;;13.27;9.67;;;;;;;-0.26;48.14;100751.93;1778511;80;22212;-61
2021/03/11 08:58:59;;;;;;;31.73;8.03;;;;;;;-0.28;48.16;100748.11;1770586;80;21125;-59
2021/03/11 09:01:48;;;;;;;21.83;8.10;;;;;;;-0.34;46.72;100734.70;1719123;82;21144;-60
2021/03/11 09:04:39;;;;;;;13.03;7.07;;;;;;;-0.33;47.71;100747.73;1703235;84;21741;-58
2021/03/11 09:07:12;;;;;;;8.70;6.70;;;;;;;-0.24;47.83;100742.05;1753872;81;21139;-60
2021/03/11 09:09:49;;;;;;;12.95;7.80;;;;;;;-0.10;47.94;100737.02;1749684;80;22240;-61
2021/03/11 09:12:38;;;;;;;12.10;6.60;;;;;;;-0.02;46.73;100737.56;1738441;82;21191;-60
2021/03/11 09:15:09;;;;;;;18.30;7.83;;;;;;;0.03;46.55;100735.27;1738268;82;21104;-61
2021/03/11 09:17:39;;;;;;;9.30;6.10;;;;;;;0.10;46.30;100727.52;1737044;82;21155;-59
2021/03/11 09:20:14;;;;;;;5.77;4.70;;;;;;;0.15;45.91;100733.17;1748476;81;21120;-61
2021/03/11 09:22:50;;;;;;;11.23;7.57;;;;;;;0.18;45.48;100735.52;1737624;82;21215;-59
2021/03/11 09:25:25;;;;;;;8.37;6.30;;;;;;;0.18;45.80;100736.36;1735762;82;21597;-61
2021/03/11 09:27:54;;;;;;;;;;;;;;;0.19;45.67;100735.34;1740452;82;21143;-62
2021/03/11 09:30:36;;;;;;;8.60;5.90;;;;;;;0.22;45.75;100735.05;1736411;82;20225;-60
2021/03/11 09:33:09;;;;;;;6.47;4.10;;;;;;;0.21;45.21;100742.64;1728816;83;21151;-62
2021/03/11 09:35:37;;;;;;;;;;;;;;;0.17;45.15;100742.63;1732903;82;21434;-60
2021/03/11 09:38:06;;;;;;;10.73;6.10;;;;;;;0.20;45.21;100742.30;1739422;81;20263;-61
2021/03/11 09:40:43;;;;;;;9.40;6.97;;;;;;;0.16;45.59;100732.20;1721050;82;21150;-60
2021/03/11 09:43:35;;;;;;;9.57;5.63;;;;;;;0.20;46.25;100733.05;1707951;84;20975;-59
2021/03/11 09:46:17;;;;;;;9.43;7.67;;;;;;;0.34;46.04;100735.09;1718040;82;21146;-61
2021/03/11 09:48:48;;;;;;;7.27;6.50;;;;;;;0.42;45.75;100732.51;1737645;82;21561;-60
2021/03/11 09:51:19;;;;;;;8.33;5.83;;;;;;;0.53;45.06;100733.22;1737890;82;21160;-60
2021/03/11 09:53:54;;;;;;;10.67;6.50;;;;;;;0.57;45.32;100727.45;1737887;82;21210;-61
2021/03/11 09:56:31;;;;;;;12.17;6.87;;;;;;;0.67;45.71;100732.08;1736985;82;21145;-60
2021/03/11 09:59:02;;;;;;;13.13;7.13;;;;;;;0.71;45.52;100739.23;1734716;82;21132;-60
2021/03/11 10:01:45;;;;;;;9.53;7.40;;;;;;;0.74;45.22;100736.25;1735543;82;21467;-62
2021/03/11 10:04:24;;;;;;;6.27;4.93;;;;;;;0.74;45.27;100726.50;1738405;82;21013;-60
2021/03/11 10:06:59;;;;;;;12.23;5.20;;;;;;;0.77;45.17;100724.01;1737996;82;21328;-61
2021/03/11 10:09:41;;;;;;;11.13;8.20;;;;;;;0.78;45.24;100713.27;1740577;80;21203;-59
2021/03/11 10:12:11;;;;;;;14.80;6.37;;;;;;;0.82;45.38;100721.70;1782731;80;20985;-60
2021/03/11 10:14:40;;;;;;;11.40;8.03;;;;;;;0.84;45.38;100724.55;1775082;79;21201;-62
2021/03/11 10:17:15;;;;;;;17.80;7.17;;;;;;;0.84;45.50;100735.63;1759668;80;21505;-62
2021/03/11 10:19:43;;;;;;;15.57;7.17;;;;;;;0.86;45.20;100728.36;1730122;82;21605;-59
2021/03/11 10:22:19;;;;;;;10.67;6.20;;;;;;;0.92;45.31;100721.08;1757736;80;21114;-61
2021/03/11 10:24:50;;;;;;;21.00;7.17;;;;;;;1.00;45.11;100723.76;1784427;80;21209;-62
2021/03/11 10:27:31;;;;;;;8.95;5.87;;;;;;;1.03;44.50;100713.32;1783783;80;21316;-60
2021/03/11 10:30:23;;;;;;;7.30;4.40;;;;;;;1.05;44.82;100714.00;1776820;80;21172;-62
2021/03/11 10:32:59;;;;;;;8.63;5.80;;;;;;;1.15;44.63;100715.48;1766531;80;21117;-62
2021/03/11 10:35:35;;;;;;;9.03;6.83;;;;;;;1.23;44.51;100711.53;1769336;80;22216;-60
2021/03/11 10:38:26;;;;;;;7.93;5.60;;;;;;;1.19;44.56;100698.28;1774931;80;21129;-62
2021/03/11 10:41:10;;;;;;;13.63;6.97;;;;;;;1.27;44.06;100708.88;1783521;80;21199;-60
2021/03/11 10:43:39;;;;;;;7.40;5.73;;;;;;;1.28;43.98;100697.30;1758833;80;21177;-63
2021/03/11 10:46:07;;;;;;;9.10;6.00;;;;;;;1.38;43.80;100697.13;1784076;80;21133;-64
2021/03/11 10:48:51;;;;;;;6.93;5.80;;;;;;;1.43;44.38;100695.31;1743376;80;21164;-66
2021/03/11 10:51:22;;;;;;;11.07;5.90;;;;;;;1.49;44.63;100690.64;1744223;80;21641;-60
2021/03/11 10:53:49;;;;;;;7.57;5.60;;;;;;;1.56;44.43;100681.88;1774440;80;21217;-60
2021/03/11 10:56:17;;;;;;;7.67;6.40;;;;;;;1.62;43.92;100687.84;1762692;80;21195;-63
2021/03/11 10:58:44;;;;;;;13.50;7.20;;;;;;;1.63;43.89;100688.15;1753082;81;21514;-59
2021/03/11 11:03:59;;;;;;;11.77;6.53;;;;;;;1.70;44.22;100667.94;1846947;76;22735;-61
2021/03/11 11:06:29;;;;;;;10.57;6.67;;;;;;;1.81;43.67;100677.86;1814079;79;21046;-62
2021/03/11 11:08:57;;;;;;;9.67;6.57;;;;;;;1.89;43.82;100673.86;1817289;79;22280;-61
2021/03/11 11:11:25;;;;;;;11.20;7.57;;;;;;;1.98;43.48;100660.89;1796167;79;21026;-61
2021/03/11 11:13:54;;;;;;;11.70;7.77;;;;;;;1.99;43.49;100656.75;1793020;79;21590;-59
2021/03/11 11:16:23;;;;;;;8.93;7.13;;;;;;;1.97;43.97;100651.28;1765213;80;21058;-60
2021/03/11 11:18:51;;;;;;;13.80;7.57;;;;;;;2.05;43.54;100658.73;1753879;81;20967;-60
2021/03/11 11:21:19;;;;;;;13.87;7.93;;;;;;;2.00;43.37;100662.89;1758600;80;22403;-61
2021/03/11 11:23:49;;;;;;;11.33;6.90;;;;;;;1.92;43.89;100653.11;1753681;81;21014;-64
2021/03/11 11:26:17;;;;;;;14.70;9.27;;;;;;;1.97;44.20;100644.64;1753812;81;20999;-62
2021/03/11 11:28:44;;;;;;;9.57;7.23;;;;;;;2.06;44.50;100640.47;1753777;81;21101;-62
2021/03/11 11:31:12;;;;;;;10.57;8.07;;;;;;;2.14;43.48;100645.77;1776541;80;21129;-61
2021/03/11 11:33:40;;;;;;;11.37;7.33;;;;;;;2.15;43.33;100630.17;1784922;80;21348;-59
2021/03/11 11:36:07;;;;;;;12.87;7.67;;;;;;;2.20;43.27;100642.92;1783962;80;21209;-61
2021/03/11 11:38:35;;;;;;;11.60;7.07;;;;;;;2.22;43.33;100638.75;1784869;80;20971;-63